sensor_id;sensor_type;location;lat;lon;timestamp;pressure;altitude;pressure_sealevel;temperature;humidity
67015;BME280;1033;52.560;13.374;2023-02-13T00:02:20;103210.69;;;7.81;100.00
67015;BME280;1033;52.560;13.374;2023-02-13T00:04:50;103215.09;;;7.82;100.00
67015;BME280;1033;52.560;13.374;2023-02-13T00:07:21;103206.41;;;7.79;100.00
67015;BME280;1033;52.560;13.374;2023-02-13T00:09:52;103206.03;;;7.83;100.00
67015;BME280;1033;52.560;13.374;2023-02-13T00:12:23;103208.06;;;7.91;100.00
67015;BME280;1033;52.560;13.374;2023-02-13T00:14:53;103219.41;;;7.74;100.00
67015;BME280;1033;52.560;13.374;2023-02-13T00:17:25;103210.31;;;7.75;100.00
67015;BME280;1033;52.560;13.374;2023-02-13T00:19:56;103204.91;;;7.86;100.00
67015;BME280;1033;52.560;13.374;2023-02-13T00:22:27;103209.69;;;7.82;100.00
67015;BME280;1033;52.560;13.374;2023-02-13T00:24:57;103209.81;;;7.81;100.00
67015;BME280;1033;52.560;13.374;2023-02-13T00:27:31;103209.19;;;7.89;100.00
67015;BME280;1033;52.560;13.374;2023-02-13T00:30:02;103208.81;;;7.93;100.00
67015;BME280;1033;52.560;13.374;2023-02-13T00:32:35;103208.94;;;7.92;100.00
67015;BME280;1033;52.560;13.374;2023-02-13T00:35:07;103210.75;;;7.91;100.00
67015;BME280;1033;52.560;13.374;2023-02-13T00:37:38;103204.88;;;7.97;100.00
67015;BME280;1033;52.560;13.374;2023-02-13T00:40:10;103202.16;;;7.97;100.00
67015;BME280;1033;52.560;13.374;2023-02-13T00:42:43;103206.56;;;7.98;100.00
67015;BME280;1033;52.560;13.374;2023-02-13T00:45:14;103201.69;;;7.92;100.00
67015;BME280;1033;52.560;13.374;2023-02-13T00:47:50;103203.16;;;7.96;100.00
67015;BME280;1033;52.560;13.374;2023-02-13T00:50:22;103201.91;;;8.00;100.00
67015;BME280;1033;52.560;13.374;2023-02-13T00:52:52;103200.72;;;7.93;100.00
67015;BME280;1033;52.560;13.374;2023-02-13T00:55:22;103200.97;;;7.90;100.00
67015;BME280;1033;52.560;13.374;2023-02-13T00:57:53;103196.41;;;7.91;100.00
67015;BME280;1033;52.560;13.374;2023-02-13T01:00:25;103200.97;;;7.90;100.00
67015;BME280;1033;52.560;13.374;2023-02-13T01:02:57;103198.19;;;7.80;100.00
67015;BME280;1033;52.560;13.374;2023-02-13T01:05:28;103203.19;;;7.85;100.00
67015;BME280;1033;52.560;13.374;2023-02-13T01:07:58;103212.00;;;7.87;100.00
67015;BME280;1033;52.560;13.374;2023-02-13T01:10:29;103204.44;;;7.81;100.00
67015;BME280;1033;52.560;13.374;2023-02-13T01:13:00;103206.88;;;7.84;100.00
67015;BME280;1033;52.560;13.374;2023-02-13T01:15:31;103210.03;;;7.89;100.00
67015;BME280;1033;52.560;13.374;2023-02-13T01:18:03;103206.72;;;7.85;100.00
67015;BME280;1033;52.560;13.374;2023-02-13T01:20:34;103204.44;;;7.70;99.97
67015;BME280;1033;52.560;13.374;2023-02-13T01:23:05;103205.50;;;7.58;99.95
67015;BME280;1033;52.560;13.374;2023-02-13T01:25:39;103207.19;;;7.59;100.00
67015;BME280;1033;52.560;13.374;2023-02-13T01:28:13;103206.84;;;7.52;99.84
67015;BME280;1033;52.560;13.374;2023-02-13T01:30:44;103205.00;;;7.53;100.00
67015;BME280;1033;52.560;13.374;2023-02-13T01:33:17;103205.50;;;7.58;100.00
67015;BME280;1033;52.560;13.374;2023-02-13T01:35:48;103202.81;;;7.47;100.00
67015;BME280;1033;52.560;13.374;2023-02-13T01:38:19;103199.13;;;7.48;100.00
67015;BME280;1033;52.560;13.374;2023-02-13T01:40:52;103204.25;;;7.51;99.78
67015;BME280;1033;52.560;13.374;2023-02-13T01:43:41;103197.66;;;7.55;100.00
67015;BME280;1033;52.560;13.374;2023-02-13T01:46:12;103196.00;;;7.74;100.00
67015;BME280;1033;52.560;13.374;2023-02-13T01:48:48;103198.97;;;7.60;99.03
67015;BME280;1033;52.560;13.374;2023-02-13T01:51:22;103198.50;;;7.55;99.75
67015;BME280;1033;52.560;13.374;2023-02-13T01:54:00;103199.06;;;7.70;99.69
67015;BME280;1033;52.560;13.374;2023-02-13T01:56:35;103194.28;;;7.73;99.27
67015;BME280;1033;52.560;13.374;2023-02-13T01:59:10;103196.06;;;7.52;99.28
67015;BME280;1033;52.560;13.374;2023-02-13T02:01:43;103196.81;;;7.54;99.85
67015;BME280;1033;52.560;13.374;2023-02-13T02:04:19;103196.06;;;7.52;100.00
67015;BME280;1033;52.560;13.374;2023-02-13T02:06:53;103197.94;;;7.40;100.00
67015;BME280;1033;52.560;13.374;2023-02-13T02:09:30;103197.97;;;7.29;100.00
67015;BME280;1033;52.560;13.374;2023-02-13T02:12:04;103198.19;;;7.26;100.00
67015;BME280;1033;52.560;13.374;2023-02-13T02:14:40;103195.34;;;7.50;100.00
67015;BME280;1033;52.560;13.374;2023-02-13T02:17:12;103198.56;;;7.33;100.00
67015;BME280;1033;52.560;13.374;2023-02-13T02:19:52;103200.38;;;7.43;100.00
67015;BME280;1033;52.560;13.374;2023-02-13T02:23:08;103201.84;;;7.36;100.00
67015;BME280;1033;52.560;13.374;2023-02-13T02:29:17;103208.72;;;7.29;100.00
67015;BME280;1033;52.560;13.374;2023-02-13T02:32:18;103207.38;;;7.24;100.00
67015;BME280;1033;52.560;13.374;2023-02-13T02:35:00;103202.59;;;7.38;100.00
67015;BME280;1033;52.560;13.374;2023-02-13T02:37:57;103207.00;;;7.39;100.00
67015;BME280;1033;52.560;13.374;2023-02-13T02:40:36;103208.19;;;7.47;100.00
67015;BME280;1033;52.560;13.374;2023-02-13T02:43:27;103206.16;;;7.39;100.00
67015;BME280;1033;52.560;13.374;2023-02-13T02:46:11;103207.72;;;7.41;100.00
67015;BME280;1033;52.560;13.374;2023-02-13T02:48:52;103205.66;;;7.45;100.00
67015;BME280;1033;52.560;13.374;2023-02-13T02:51:48;103214.13;;;7.29;100.00
67015;BME280;1033;52.560;13.374;2023-02-13T02:54:28;103208.25;;;7.24;100.00
67015;BME280;1033;52.560;13.374;2023-02-13T02:57:20;103208.63;;;7.31;100.00
67015;BME280;1033;52.560;13.374;2023-02-13T02:59:57;103210.09;;;7.13;100.00
67015;BME280;1033;52.560;13.374;2023-02-13T03:02:45;103209.97;;;7.25;100.00
67015;BME280;1033;52.560;13.374;2023-02-13T03:05:36;103206.28;;;7.26;100.00
67015;BME280;1033;52.560;13.374;2023-02-13T03:08:28;103210.47;;;7.19;100.00
67015;BME280;1033;52.560;13.374;2023-02-13T03:11:13;103218.28;;;7.33;100.00
67015;BME280;1033;52.560;13.374;2023-02-13T03:14:25;103217.41;;;7.33;100.00
67015;BME280;1033;52.560;13.374;2023-02-13T03:16:58;103205.53;;;7.35;100.00
67015;BME280;1033;52.560;13.374;2023-02-13T03:23:14;103212.13;;;7.42;100.00
67015;BME280;1033;52.560;13.374;2023-02-13T03:26:04;103220.00;;;7.34;100.00
67015;BME280;1033;52.560;13.374;2023-02-13T03:28:44;103210.94;;;7.35;100.00
67015;BME280;1033;52.560;13.374;2023-02-13T03:31:37;103220.72;;;7.36;100.00
67015;BME280;1033;52.560;13.374;2023-02-13T03:34:15;103215.03;;;7.51;100.00
67015;BME280;1033;52.560;13.374;2023-02-13T03:36:52;103208.44;;;7.55;100.00
67015;BME280;1033;52.560;13.374;2023-02-13T03:39:48;103216.91;;;7.39;100.00
67015;BME280;1033;52.560;13.374;2023-02-13T03:42:29;103205.88;;;7.42;100.00
67015;BME280;1033;52.560;13.374;2023-02-13T03:45:02;103210.41;;;7.41;100.00
67015;BME280;1033;52.560;13.374;2023-02-13T03:47:55;103208.00;;;7.27;100.00
67015;BME280;1033;52.560;13.374;2023-02-13T03:50:29;103202.00;;;7.24;100.00
67015;BME280;1033;52.560;13.374;2023-02-13T03:53:01;103195.97;;;7.31;100.00
67015;BME280;1033;52.560;13.374;2023-02-13T03:55:41;103204.31;;;7.39;100.00
67015;BME280;1033;52.560;13.374;2023-02-13T03:58:31;103199.41;;;7.45;100.00
67015;BME280;1033;52.560;13.374;2023-02-13T04:01:28;103209.91;;;7.48;100.00
67015;BME280;1033;52.560;13.374;2023-02-13T04:04:04;103200.16;;;7.35;100.00
67015;BME280;1033;52.560;13.374;2023-02-13T04:06:39;103198.81;;;7.19;100.00
67015;BME280;1033;52.560;13.374;2023-02-13T04:09:13;103191.22;;;7.24;100.00
67015;BME280;1033;52.560;13.374;2023-02-13T04:11:52;103191.44;;;7.32;100.00
67015;BME280;1033;52.560;13.374;2023-02-13T04:14:26;103192.78;;;7.37;100.00
67015;BME280;1033;52.560;13.374;2023-02-13T04:17:03;103191.00;;;7.16;100.00
67015;BME280;1033;52.560;13.374;2023-02-13T04:19:34;103188.00;;;7.41;100.00
67015;BME280;1033;52.560;13.374;2023-02-13T04:22:06;103182.38;;;7.44;100.00
67015;BME280;1033;52.560;13.374;2023-02-13T04:27:57;103187.41;;;7.37;100.00
67015;BME280;1033;52.560;13.374;2023-02-13T04:30:28;103188.75;;;7.32;100.00
67015;BME280;1033;52.560;13.374;2023-02-13T04:32:59;103190.84;;;7.28;100.00
67015;BME280;1033;52.560;13.374;2023-02-13T04:35:30;103195.00;;;7.32;100.00
67015;BME280;1033;52.560;13.374;2023-02-13T04:38:00;103188.16;;;7.28;100.00
67015;BME280;1033;52.560;13.374;2023-02-13T04:40:30;103184.50;;;7.29;100.00
67015;BME280;1033;52.560;13.374;2023-02-13T04:43:04;103183.63;;;7.40;100.00
67015;BME280;1033;52.560;13.374;2023-02-13T04:45:36;103182.28;;;7.34;100.00
67015;BME280;1033;52.560;13.374;2023-02-13T04:48:22;103176.13;;;7.43;100.00
67015;BME280;1033;52.560;13.374;2023-02-13T04:50:53;103179.81;;;7.42;100.00
67015;BME280;1033;52.560;13.374;2023-02-13T04:53:23;103175.66;;;7.38;100.00
67015;BME280;1033;52.560;13.374;2023-02-13T04:55:54;103173.94;;;7.26;100.00
67015;BME280;1033;52.560;13.374;2023-02-13T04:58:27;103177.88;;;7.22;100.00
67015;BME280;1033;52.560;13.374;2023-02-13T05:00:57;103181.09;;;7.16;100.00
67015;BME280;1033;52.560;13.374;2023-02-13T05:03:28;103183.03;;;7.14;100.00
67015;BME280;1033;52.560;13.374;2023-02-13T05:05:59;103176.16;;;7.21;100.00
67015;BME280;1033;52.560;13.374;2023-02-13T05:08:29;103177.88;;;7.22;100.00
67015;BME280;1033;52.560;13.374;2023-02-13T05:11:00;103183.16;;;7.13;100.00
67015;BME280;1033;52.560;13.374;2023-02-13T05:13:34;103182.03;;;7.26;100.00
67015;BME280;1033;52.560;13.374;2023-02-13T05:16:05;103181.44;;;7.23;99.95
67015;BME280;1033;52.560;13.374;2023-02-13T05:18:36;103185.72;;;7.14;99.48
67015;BME280;1033;52.560;13.374;2023-02-13T05:21:06;103185.09;;;7.33;99.73
67015;BME280;1033;52.560;13.374;2023-02-13T05:23:54;103177.66;;;7.25;99.30
67015;BME280;1033;52.560;13.374;2023-02-13T05:26:24;103183.38;;;7.32;99.88
67015;BME280;1033;52.560;13.374;2023-02-13T05:28:56;103180.28;;;7.36;99.24
67015;BME280;1033;52.560;13.374;2023-02-13T05:31:43;103181.41;;;7.34;99.29
67015;BME280;1033;52.560;13.374;2023-02-13T05:34:14;103179.31;;;7.49;99.09
67015;BME280;1033;52.560;13.374;2023-02-13T05:36:46;103187.50;;;7.47;98.42
67015;BME280;1033;52.560;13.374;2023-02-13T05:39:17;103185.88;;;7.56;97.61
67015;BME280;1033;52.560;13.374;2023-02-13T05:41:49;103180.06;;;7.39;96.76
67015;BME280;1033;52.560;13.374;2023-02-13T05:44:21;103184.91;;;7.46;97.06
67015;BME280;1033;52.560;13.374;2023-02-13T05:46:52;103186.22;;;7.30;97.85
67015;BME280;1033;52.560;13.374;2023-02-13T05:49:22;103192.09;;;7.24;97.55
67015;BME280;1033;52.560;13.374;2023-02-13T05:51:53;103187.06;;;7.31;96.72
67015;BME280;1033;52.560;13.374;2023-02-13T05:54:26;103193.28;;;7.31;97.46
67015;BME280;1033;52.560;13.374;2023-02-13T05:56:56;103203.56;;;7.37;97.58
67015;BME280;1033;52.560;13.374;2023-02-13T05:59:27;103199.31;;;7.35;97.93
67015;BME280;1033;52.560;13.374;2023-02-13T06:01:57;103197.41;;;7.47;96.86
67015;BME280;1033;52.560;13.374;2023-02-13T06:04:27;103206.03;;;7.40;96.00
67015;BME280;1033;52.560;13.374;2023-02-13T06:06:59;103208.00;;;7.27;95.98
67015;BME280;1033;52.560;13.374;2023-02-13T06:09:32;103208.34;;;7.34;96.58
67015;BME280;1033;52.560;13.374;2023-02-13T06:12:03;103204.31;;;7.39;95.47
67015;BME280;1033;52.560;13.374;2023-02-13T06:14:35;103211.66;;;7.37;95.27
67015;BME280;1033;52.560;13.374;2023-02-13T06:17:05;103212.88;;;7.33;96.83
67015;BME280;1033;52.560;13.374;2023-02-13T06:19:36;103206.38;;;7.47;94.97
67015;BME280;1033;52.560;13.374;2023-02-13T06:22:07;103211.28;;;7.42;96.14
67015;BME280;1033;52.560;13.374;2023-02-13T06:24:37;103209.06;;;7.47;94.87
67015;BME280;1033;52.560;13.374;2023-02-13T06:27:07;103207.00;;;7.39;95.14
67015;BME280;1033;52.560;13.374;2023-02-13T06:29:39;103212.13;;;7.42;94.58
67015;BME280;1033;52.560;13.374;2023-02-13T06:32:09;103220.19;;;7.54;94.21
67015;BME280;1033;52.560;13.374;2023-02-13T06:34:39;103220.22;;;7.31;94.27
67015;BME280;1033;52.560;13.374;2023-02-13T06:37:09;103214.00;;;7.31;94.27
67015;BME280;1033;52.560;13.374;2023-02-13T06:39:40;103212.78;;;7.35;94.30
67015;BME280;1033;52.560;13.374;2023-02-13T06:42:13;103218.88;;;7.37;93.89
67015;BME280;1033;52.560;13.374;2023-02-13T06:44:44;103218.47;;;7.53;93.66
67015;BME280;1033;52.560;13.374;2023-02-13T06:47:15;103224.63;;;7.43;93.35
67015;BME280;1033;52.560;13.374;2023-02-13T06:49:48;103228.56;;;7.28;93.64
67015;BME280;1033;52.560;13.374;2023-02-13T06:52:19;103229.66;;;7.37;93.76
67015;BME280;1033;52.560;13.374;2023-02-13T06:54:50;103230.03;;;7.32;93.78
67015;BME280;1033;52.560;13.374;2023-02-13T06:57:22;103232.13;;;7.18;94.29
67015;BME280;1033;52.560;13.374;2023-02-13T06:59:54;103243.50;;;7.32;94.43
67015;BME280;1033;52.560;13.374;2023-02-13T07:02:25;103239.19;;;7.41;93.54
67015;BME280;1033;52.560;13.374;2023-02-13T07:04:57;103245.69;;;7.50;93.07
67015;BME280;1033;52.560;13.374;2023-02-13T07:07:34;103246.44;;;7.40;93.87
67015;BME280;1033;52.560;13.374;2023-02-13T07:10:08;103240.78;;;7.43;93.87
67015;BME280;1033;52.560;13.374;2023-02-13T07:12:40;103251.41;;;7.56;92.84
67015;BME280;1033;52.560;13.374;2023-02-13T07:15:18;103242.84;;;7.51;93.06
67015;BME280;1033;52.560;13.374;2023-02-13T07:17:54;103241.00;;;7.52;92.33
67015;BME280;1033;52.560;13.374;2023-02-13T07:20:25;103249.34;;;7.49;92.46
67015;BME280;1033;52.560;13.374;2023-02-13T07:22:59;103247.25;;;7.63;92.31
67015;BME280;1033;52.560;13.374;2023-02-13T07:25:29;103247.84;;;7.56;92.44
67015;BME280;1033;52.560;13.374;2023-02-13T07:28:04;103254.75;;;7.49;93.11
67015;BME280;1033;52.560;13.374;2023-02-13T07:30:37;103258.88;;;7.64;92.49
67015;BME280;1033;52.560;13.374;2023-02-13T07:33:08;103257.66;;;7.57;92.41
67015;BME280;1033;52.560;13.374;2023-02-13T07:35:45;103248.22;;;7.62;91.78
67015;BME280;1033;52.560;13.374;2023-02-13T07:38:17;103258.53;;;7.57;92.81
67015;BME280;1033;52.560;13.374;2023-02-13T07:40:50;103259.38;;;7.58;92.69
67015;BME280;1033;52.560;13.374;2023-02-13T07:43:20;103256.63;;;7.80;91.13
67015;BME280;1033;52.560;13.374;2023-02-13T07:45:57;103257.38;;;7.82;90.65
67015;BME280;1033;52.560;13.374;2023-02-13T07:48:30;103257.97;;;7.85;90.76
67015;BME280;1033;52.560;13.374;2023-02-13T07:51:02;103266.69;;;7.78;90.71
67015;BME280;1033;52.560;13.374;2023-02-13T07:53:32;103262.25;;;7.88;89.88
67015;BME280;1033;52.560;13.374;2023-02-13T07:56:07;103264.72;;;7.80;90.21
67015;BME280;1033;52.560;13.374;2023-02-13T07:58:38;103256.63;;;7.80;90.35
67015;BME280;1033;52.560;13.374;2023-02-13T08:01:19;103269.25;;;7.79;90.57
67015;BME280;1033;52.560;13.374;2023-02-13T08:03:51;103257.00;;;7.75;90.33
67015;BME280;1033;52.560;13.374;2023-02-13T08:06:22;103260.59;;;7.65;91.31
67015;BME280;1033;52.560;13.374;2023-02-13T08:08:54;103268.41;;;7.79;91.49
67015;BME280;1033;52.560;13.374;2023-02-13T08:11:38;103263.63;;;7.71;91.65
67015;BME280;1033;52.560;13.374;2023-02-13T08:14:25;103262.75;;;7.82;91.31
67015;BME280;1033;52.560;13.374;2023-02-13T08:16:58;103263.53;;;7.73;91.30
67015;BME280;1033;52.560;13.374;2023-02-13T08:19:32;103268.66;;;7.76;91.57
67015;BME280;1033;52.560;13.374;2023-02-13T08:22:04;103266.19;;;7.84;91.02
67015;BME280;1033;52.560;13.374;2023-02-13T08:24:34;103266.03;;;7.85;90.82
67015;BME280;1033;52.560;13.374;2023-02-13T08:27:04;103261.53;;;7.75;92.13
67015;BME280;1033;52.560;13.374;2023-02-13T08:29:35;103262.00;;;7.80;92.00
67015;BME280;1033;52.560;13.374;2023-02-13T08:32:07;103268.34;;;7.90;91.69
67015;BME280;1033;52.560;13.374;2023-02-13T08:34:38;103275.34;;;7.93;91.95
67015;BME280;1033;52.560;13.374;2023-02-13T08:37:09;103273.59;;;8.03;90.70
67015;BME280;1033;52.560;13.374;2023-02-13T08:39:42;103271.28;;;7.98;90.65
67015;BME280;1033;52.560;13.374;2023-02-13T08:42:12;103268.34;;;8.01;90.89
67015;BME280;1033;52.560;13.374;2023-02-13T08:44:43;103264.16;;;8.08;91.61
67015;BME280;1033;52.560;13.374;2023-02-13T08:47:15;103264.38;;;8.05;90.48
67015;BME280;1033;52.560;13.374;2023-02-13T08:49:46;103261.91;;;8.13;90.86
67015;BME280;1033;52.560;13.374;2023-02-13T08:52:16;103265.53;;;8.35;89.92
67015;BME280;1033;52.560;13.374;2023-02-13T08:54:47;103268.50;;;8.32;89.38
67015;BME280;1033;52.560;13.374;2023-02-13T08:57:17;103264.56;;;8.24;89.62
67015;BME280;1033;52.560;13.374;2023-02-13T08:59:48;103265.34;;;8.15;90.24
67015;BME280;1033;52.560;13.374;2023-02-13T09:02:20;103268.50;;;8.20;89.67
67015;BME280;1033;52.560;13.374;2023-02-13T09:04:50;103272.91;;;8.21;89.82
67015;BME280;1033;52.560;13.374;2023-02-13T09:07:20;103272.47;;;8.05;90.83
67015;BME280;1033;52.560;13.374;2023-02-13T09:09:51;103274.94;;;8.08;91.82
67015;BME280;1033;52.560;13.374;2023-02-13T09:12:22;103273.81;;;8.11;92.59
67015;BME280;1033;52.560;13.374;2023-02-13T09:14:53;103272.97;;;7.99;92.74
67015;BME280;1033;52.560;13.374;2023-02-13T09:17:25;103276.03;;;8.06;92.74
67015;BME280;1033;52.560;13.374;2023-02-13T09:19:56;103276.41;;;8.01;93.75
67015;BME280;1033;52.560;13.374;2023-02-13T09:22:27;103277.91;;;7.94;94.70
67015;BME280;1033;52.560;13.374;2023-02-13T09:24:59;103285.25;;;8.03;94.79
67015;BME280;1033;52.560;13.374;2023-02-13T09:27:31;103275.09;;;7.96;95.42
67015;BME280;1033;52.560;13.374;2023-02-13T09:30:05;103283.09;;;7.86;95.22
67015;BME280;1033;52.560;13.374;2023-02-13T09:32:41;103282.97;;;7.88;96.53
67015;BME280;1033;52.560;13.374;2023-02-13T09:35:12;103289.22;;;7.88;96.21
67015;BME280;1033;52.560;13.374;2023-02-13T09:37:44;103277.66;;;7.97;96.29
67015;BME280;1033;52.560;13.374;2023-02-13T09:40:23;103286.91;;;8.15;96.54
67015;BME280;1033;52.560;13.374;2023-02-13T09:43:01;103294.75;;;8.29;95.94
67015;BME280;1033;52.560;13.374;2023-02-13T09:45:36;103295.28;;;8.12;96.16
67015;BME280;1033;52.560;13.374;2023-02-13T09:48:17;103299.41;;;8.16;97.26
67015;BME280;1033;52.560;13.374;2023-02-13T09:51:18;103289.72;;;8.14;98.06
67015;BME280;1033;52.560;13.374;2023-02-13T09:53:53;103290.38;;;8.06;99.49
67015;BME280;1033;52.560;13.374;2023-02-13T09:56:38;103291.13;;;8.08;99.23
67015;BME280;1033;52.560;13.374;2023-02-13T09:59:24;103282.03;;;8.09;99.68
67015;BME280;1033;52.560;13.374;2023-02-13T10:02:01;103276.81;;;7.97;100.00
67015;BME280;1033;52.560;13.374;2023-02-13T10:04:44;103274.97;;;7.97;100.00
67015;BME280;1033;52.560;13.374;2023-02-13T10:07:24;103284.00;;;8.07;100.00
67015;BME280;1033;52.560;13.374;2023-02-13T10:10:05;103280.13;;;7.89;100.00
67015;BME280;1033;52.560;13.374;2023-02-13T10:12:55;103284.09;;;7.74;100.00
67015;BME280;1033;52.560;13.374;2023-02-13T10:15:34;103289.84;;;7.80;100.00
67015;BME280;1033;52.560;13.374;2023-02-13T10:18:11;103294.50;;;7.78;100.00
67015;BME280;1033;52.560;13.374;2023-02-13T10:20:48;103278.06;;;7.81;100.00
67015;BME280;1033;52.560;13.374;2023-02-13T10:23:24;103285.09;;;8.05;100.00
67015;BME280;1033;52.560;13.374;2023-02-13T10:25:58;103280.75;;;7.93;100.00
67015;BME280;1033;52.560;13.374;2023-02-13T10:28:33;103278.84;;;8.04;100.00
67015;BME280;1033;52.560;13.374;2023-02-13T10:31:09;103279.28;;;8.20;100.00
67015;BME280;1033;52.560;13.374;2023-02-13T10:33:47;103282.56;;;8.03;100.00
67015;BME280;1033;52.560;13.374;2023-02-13T10:36:22;103279.81;;;8.14;100.00
67015;BME280;1033;52.560;13.374;2023-02-13T10:38:59;103276.19;;;8.36;100.00
67015;BME280;1033;52.560;13.374;2023-02-13T10:41:39;103276.00;;;8.49;100.00
67015;BME280;1033;52.560;13.374;2023-02-13T10:44:33;103278.75;;;8.58;100.00
67015;BME280;1033;52.560;13.374;2023-02-13T10:47:17;103276.81;;;8.60;99.06
67015;BME280;1033;52.560;13.374;2023-02-13T10:50:07;103273.94;;;8.62;98.23
67015;BME280;1033;52.560;13.374;2023-02-13T10:52:51;103275.22;;;8.58;97.46
67015;BME280;1033;52.560;13.374;2023-02-13T10:55:41;103268.47;;;8.52;99.33
67015;BME280;1033;52.560;13.374;2023-02-13T10:58:17;103259.41;;;8.53;99.23
67015;BME280;1033;52.560;13.374;2023-02-13T11:00:52;103259.28;;;8.23;98.43
67015;BME280;1033;52.560;13.374;2023-02-13T11:03:25;103255.81;;;8.00;100.00
67015;BME280;1033;52.560;13.374;2023-02-13T11:05:57;103257.28;;;8.04;99.22
67015;BME280;1033;52.560;13.374;2023-02-13T11:08:33;103255.81;;;8.00;100.00
67015;BME280;1033;52.560;13.374;2023-02-13T11:11:30;103258.31;;;7.92;98.48
67015;BME280;1033;52.560;13.374;2023-02-13T11:14:12;103245.69;;;7.93;97.71
67015;BME280;1033;52.560;13.374;2023-02-13T11:17:01;103250.13;;;8.14;97.61
67015;BME280;1033;52.560;13.374;2023-02-13T11:19:34;103255.31;;;8.06;98.27
67015;BME280;1033;52.560;13.374;2023-02-13T11:22:11;103246.75;;;8.33;98.47
67015;BME280;1033;52.560;13.374;2023-02-13T11:24:51;103239.03;;;8.28;96.77
67015;BME280;1033;52.560;13.374;2023-02-13T11:27:25;103250.41;;;8.11;98.29
67015;BME280;1033;52.560;13.374;2023-02-13T11:29:58;103243.28;;;8.10;98.79
67015;BME280;1033;52.560;13.374;2023-02-13T11:32:31;103238.34;;;8.47;98.30
67015;BME280;1033;52.560;13.374;2023-02-13T11:35:24;103238.53;;;8.35;97.12
67015;BME280;1033;52.560;13.374;2023-02-13T11:38:18;103232.34;;;8.44;96.30
67015;BME280;1033;52.560;13.374;2023-02-13T11:41:02;103235.28;;;8.52;95.32
67015;BME280;1033;52.560;13.374;2023-02-13T11:43:36;103239.06;;;8.49;94.78
67015;BME280;1033;52.560;13.374;2023-02-13T11:46:09;103236.16;;;8.62;95.45
67015;BME280;1033;52.560;13.374;2023-02-13T11:48:54;103229.81;;;8.42;95.15
67015;BME280;1033;52.560;13.374;2023-02-13T11:51:38;103224.59;;;8.71;94.81
67015;BME280;1033;52.560;13.374;2023-02-13T11:54:28;103227.69;;;8.66;93.51
67015;BME280;1033;52.560;13.374;2023-02-13T11:57:02;103226.72;;;8.77;93.66
67015;BME280;1033;52.560;13.374;2023-02-13T11:59:47;103223.50;;;8.83;92.39
67015;BME280;1033;52.560;13.374;2023-02-13T12:02:19;103223.56;;;8.72;92.42
67015;BME280;1033;52.560;13.374;2023-02-13T12:04:52;103211.84;;;8.83;91.74
67015;BME280;1033;52.560;13.374;2023-02-13T12:07:24;103217.56;;;8.89;91.12
67015;BME280;1033;52.560;13.374;2023-02-13T12:10:00;103212.09;;;9.00;89.71
67015;BME280;1033;52.560;13.374;2023-02-13T12:12:38;103211.63;;;8.65;89.65
67015;BME280;1033;52.560;13.374;2023-02-13T12:15:17;103212.53;;;8.54;90.45
67015;BME280;1033;52.560;13.374;2023-02-13T12:17:58;103219.25;;;8.60;90.85
67015;BME280;1033;52.560;13.374;2023-02-13T12:20:36;103215.91;;;8.47;90.38
67015;BME280;1033;52.560;13.374;2023-02-13T12:23:21;103219.13;;;8.61;91.34
67015;BME280;1033;52.560;13.374;2023-02-13T12:26:02;103233.47;;;8.62;90.68
67015;BME280;1033;52.560;13.374;2023-02-13T12:28:46;103226.56;;;8.48;91.23
67015;BME280;1033;52.560;13.374;2023-02-13T12:31:33;103227.53;;;8.47;91.45
67015;BME280;1033;52.560;13.374;2023-02-13T12:34:34;103226.78;;;8.56;91.07
67015;BME280;1033;52.560;13.374;2023-02-13T12:37:44;103220.25;;;8.38;90.65
67015;BME280;1033;52.560;13.374;2023-02-13T12:40:30;103229.88;;;8.52;90.27
67015;BME280;1033;52.560;13.374;2023-02-13T12:43:15;103226.84;;;8.45;89.92
67015;BME280;1033;52.560;13.374;2023-02-13T12:46:00;103232.56;;;8.31;91.35
67015;BME280;1033;52.560;13.374;2023-02-13T12:48:39;103230.22;;;8.26;91.46
67015;BME280;1033;52.560;13.374;2023-02-13T12:51:28;103226.44;;;8.50;92.43
67015;BME280;1033;52.560;13.374;2023-02-13T12:54:19;103221.56;;;8.44;90.48
67015;BME280;1033;52.560;13.374;2023-02-13T12:57:10;103231.84;;;8.50;90.86
67015;BME280;1033;52.560;13.374;2023-02-13T12:59:55;103222.09;;;8.38;90.79
67015;BME280;1033;52.560;13.374;2023-02-13T13:03:00;103219.78;;;8.54;91.09
67015;BME280;1033;52.560;13.374;2023-02-13T13:05:49;103217.47;;;8.70;90.31
67015;BME280;1033;52.560;13.374;2023-02-13T13:08:59;103221.91;;;8.71;89.02
67015;BME280;1033;52.560;13.374;2023-02-13T13:12:05;103211.56;;;8.76;88.86
67015;BME280;1033;52.560;13.374;2023-02-13T13:14:49;103212.59;;;8.64;86.72
67015;BME280;1033;52.560;13.374;2023-02-13T13:17:36;103216.03;;;8.45;87.98
67015;BME280;1033;52.560;13.374;2023-02-13T13:20:37;103216.91;;;8.46;88.79
67015;BME280;1033;52.560;13.374;2023-02-13T13:23:16;103217.53;;;8.17;90.32
67015;BME280;1033;52.560;13.374;2023-02-13T13:25:54;103205.59;;;8.52;89.32
67015;BME280;1033;52.560;13.374;2023-02-13T13:28:31;103202.78;;;8.63;88.99
67015;BME280;1033;52.560;13.374;2023-02-13T13:31:03;103216.16;;;8.64;88.95
67015;BME280;1033;52.560;13.374;2023-02-13T13:33:34;103220.28;;;8.68;88.32
67015;BME280;1033;52.560;13.374;2023-02-13T13:36:12;103214.38;;;8.54;89.53
67015;BME280;1033;52.560;13.374;2023-02-13T13:38:56;103218.81;;;8.55;89.02
67015;BME280;1033;52.560;13.374;2023-02-13T13:41:34;103222.47;;;8.75;88.30
67015;BME280;1033;52.560;13.374;2023-02-13T13:47:19;103215.19;;;8.65;88.26
67015;BME280;1033;52.560;13.374;2023-02-13T13:49:54;103222.66;;;8.62;85.32
67015;BME280;1033;52.560;13.374;2023-02-13T13:52:28;103216.78;;;8.78;85.46
67015;BME280;1033;52.560;13.374;2023-02-13T13:55:00;103217.75;;;8.46;82.68
67015;BME280;1033;52.560;13.374;2023-02-13T13:57:58;103215.13;;;8.24;82.87
67015;BME280;1033;52.560;13.374;2023-02-13T14:00:30;103215.13;;;8.24;81.42